createdAt,value
2018-12-12T00:00:11.149Z,20.37
2018-12-12T00:02:53.264Z,21.37
2018-12-12T00:05:35.709Z,28.43
2018-12-12T00:08:18.281Z,25.40
2018-12-12T00:11:00.838Z,20.57
2018-12-12T00:13:43.401Z,27.00
2018-12-12T00:16:26.436Z,25.00
2018-12-12T00:19:08.519Z,22.17
2018-12-12T00:21:50.862Z,25.80
2018-12-12T00:24:32.625Z,32.70
2018-12-12T00:27:15.041Z,20.03
2018-12-12T00:29:57.012Z,24.30
2018-12-12T00:32:39.419Z,29.13
2018-12-12T00:35:21.859Z,21.87
2018-12-12T00:38:03.295Z,24.23
2018-12-12T00:40:44.874Z,22.03
2018-12-12T00:43:26.615Z,24.93
2018-12-12T00:46:09.021Z,23.73
2018-12-12T00:48:50.898Z,24.10
2018-12-12T00:51:33.480Z,26.47
2018-12-12T00:54:15.331Z,29.50
2018-12-12T00:56:57.205Z,24.30
2018-12-12T00:59:38.896Z,24.83
2018-12-12T01:02:21.479Z,26.13
2018-12-12T01:05:04.263Z,23.77
2018-12-12T01:07:46.438Z,24.63
2018-12-12T01:10:28.754Z,27.90
2018-12-12T01:13:10.621Z,25.17
2018-12-12T01:15:53.376Z,24.37
2018-12-12T01:18:35.197Z,30.50
2018-12-12T01:21:17.324Z,29.53
2018-12-12T01:23:59.346Z,30.30
2018-12-12T01:26:41.176Z,27.57
2018-12-12T01:29:23.372Z,25.00
2018-12-12T01:32:05.521Z,20.77
2018-12-12T01:34:47.724Z,28.47
2018-12-12T01:37:29.435Z,27.40
2018-12-12T01:40:12.028Z,23.53
2018-12-12T01:42:54.741Z,27.07
2018-12-12T01:45:37.210Z,20.53
2018-12-12T01:48:19.588Z,33.00
2018-12-12T01:51:01.379Z,25.53
2018-12-12T01:53:46.520Z,23.67
2018-12-12T01:56:28.225Z,25.37
2018-12-12T01:59:10.673Z,30.07
2018-12-12T02:01:53.854Z,26.20
2018-12-12T02:04:35.848Z,22.90
2018-12-12T02:07:18.105Z,25.70
2018-12-12T02:10:00.968Z,24.20
2018-12-12T02:12:42.788Z,26.50
2018-12-12T02:15:24.573Z,30.20
2018-12-12T02:18:07.164Z,32.37
2018-12-12T02:20:49.411Z,25.53
2018-12-12T02:23:30.873Z,29.53
2018-12-12T02:26:12.888Z,23.33
2018-12-12T02:28:55.188Z,22.83
2018-12-12T02:31:37.605Z,25.60
2018-12-12T02:34:20.194Z,25.20
2018-12-12T02:37:02.562Z,24.63
2018-12-12T02:39:44.994Z,32.87
2018-12-12T02:42:26.566Z,29.23
2018-12-12T02:45:09.819Z,32.17
2018-12-12T02:47:51.714Z,29.10
2018-12-12T02:50:33.214Z,30.60
2018-12-12T02:53:14.952Z,31.37
2018-12-12T02:55:58.217Z,34.07
2018-12-12T02:58:40.129Z,34.07
2018-12-12T03:01:22.650Z,30.83
2018-12-12T03:04:05.053Z,27.47
2018-12-12T03:06:46.628Z,28.73
2018-12-12T03:09:28.439Z,32.97
2018-12-12T03:12:10.624Z,26.23
2018-12-12T03:14:52.523Z,31.87
2018-12-12T03:17:34.609Z,29.60
2018-12-12T03:20:16.127Z,28.80
2018-12-12T03:22:58.423Z,28.73
2018-12-12T03:25:40.425Z,31.90
2018-12-12T03:28:22.219Z,29.37
2018-12-12T03:31:04.177Z,31.10
2018-12-12T03:33:45.902Z,29.50
2018-12-12T03:36:28.400Z,32.97
2018-12-12T03:39:10.864Z,40.47
2018-12-12T03:41:53.520Z,32.27
2018-12-12T03:44:35.733Z,32.83
2018-12-12T03:47:18.350Z,30.07
2018-12-12T03:50:01.233Z,39.07
2018-12-12T03:52:43.579Z,46.83
2018-12-12T03:55:25.968Z,37.97
2018-12-12T03:58:07.636Z,39.57
2018-12-12T04:00:50.554Z,40.07
2018-12-12T04:03:32.873Z,42.60
2018-12-12T04:06:15.636Z,43.00
2018-12-12T04:08:58.009Z,44.57
2018-12-12T04:11:40.411Z,39.17
2018-12-12T04:14:22.102Z,36.90
2018-12-12T04:17:04.612Z,37.57
2018-12-12T04:19:47.175Z,39.87
2018-12-12T04:22:29.980Z,32.37
2018-12-12T04:25:12.502Z,33.10
2018-12-12T04:27:54.448Z,35.50
2018-12-12T04:30:36.137Z,38.13
2018-12-12T04:33:18.007Z,34.63
2018-12-12T04:36:00.608Z,31.40
2018-12-12T04:38:42.246Z,38.43
2018-12-12T04:41:24.302Z,30.73
2018-12-12T04:44:06.694Z,29.73
2018-12-12T04:46:49.240Z,28.23
2018-12-12T04:49:33.082Z,28.37
2018-12-12T04:52:15.679Z,27.27
2018-12-12T04:54:57.626Z,32.33
2018-12-12T04:57:39.488Z,26.40
2018-12-12T05:00:22.210Z,27.03
2018-12-12T05:03:05.102Z,25.17
2018-12-12T05:05:47.030Z,24.57
2018-12-12T05:08:29.229Z,23.60
2018-12-12T05:11:10.804Z,22.23
2018-12-12T05:13:52.497Z,25.20
2018-12-12T05:16:33.988Z,21.87
2018-12-12T05:19:15.793Z,20.67
2018-12-12T05:21:58.099Z,22.60
2018-12-12T05:24:39.974Z,24.27
2018-12-12T05:27:22.182Z,21.37
2018-12-12T05:30:03.812Z,26.37
2018-12-12T05:32:45.365Z,20.30
2018-12-12T05:35:27.776Z,19.10
2018-12-12T05:38:10.085Z,18.67
2018-12-12T05:40:52.174Z,18.80
2018-12-12T05:43:34.581Z,23.50
2018-12-12T05:46:16.907Z,23.07
2018-12-12T05:48:59.845Z,20.53
2018-12-12T05:51:42.218Z,20.73
2018-12-12T05:54:24.211Z,18.27
2018-12-12T05:57:06.160Z,21.77
2018-12-12T05:59:48.005Z,18.03
2018-12-12T06:02:30.825Z,18.97
2018-12-12T06:05:12.620Z,17.27
2018-12-12T06:07:54.404Z,19.70
2018-12-12T06:10:35.830Z,16.27
2018-12-12T06:13:17.821Z,19.90
2018-12-12T06:15:59.806Z,15.93
2018-12-12T06:18:41.170Z,18.23
2018-12-12T06:21:22.979Z,28.40
2018-12-12T06:24:05.467Z,17.57
2018-12-12T06:26:47.968Z,24.10
2018-12-12T06:29:30.114Z,18.93
2018-12-12T06:32:11.767Z,21.00
2018-12-12T06:34:54.674Z,30.30
2018-12-12T06:37:37.037Z,22.20
2018-12-12T06:40:19.483Z,27.33
2018-12-12T06:43:02.009Z,27.47
2018-12-12T06:45:44.591Z,20.43
2018-12-12T06:48:26.905Z,22.37
2018-12-12T06:51:10.101Z,21.67
2018-12-12T06:53:52.051Z,26.43
2018-12-12T06:56:34.859Z,22.90
2018-12-12T06:59:17.072Z,32.27
2018-12-12T07:01:58.949Z,24.67
2018-12-12T07:04:41.631Z,25.07
2018-12-12T07:07:24.034Z,23.77
2018-12-12T07:10:06.538Z,25.53
2018-12-12T07:12:48.041Z,19.07
2018-12-12T07:15:29.562Z,24.70
2018-12-12T07:18:12.026Z,21.07
2018-12-12T07:20:53.952Z,22.33
2018-12-12T07:23:36.780Z,27.23
2018-12-12T07:26:18.852Z,28.10
2018-12-12T07:29:01.106Z,21.93
2018-12-12T07:31:44.006Z,20.77
2018-12-12T07:34:26.808Z,22.57
2018-12-12T07:37:08.735Z,17.23
2018-12-12T07:39:51.731Z,22.33
2018-12-12T07:42:33.831Z,18.53
2018-12-12T07:45:16.642Z,16.07
2018-12-12T07:48:01.575Z,20.17
2018-12-12T07:50:44.075Z,17.97
2018-12-12T07:53:26.688Z,17.37
2018-12-12T07:56:08.462Z,20.17
2018-12-12T07:58:50.948Z,20.20
2018-12-12T08:01:33.509Z,18.50
2018-12-12T08:04:15.762Z,19.40
2018-12-12T08:06:57.801Z,19.20
2018-12-12T08:09:41.082Z,18.57
2018-12-12T08:12:23.617Z,17.40
2018-12-12T08:15:05.610Z,20.27
2018-12-12T08:17:47.505Z,23.97
2018-12-12T08:20:29.593Z,19.87
2018-12-12T08:23:12.277Z,22.77
2018-12-12T08:25:54.354Z,19.33
2018-12-12T08:28:36.019Z,19.10
2018-12-12T08:31:18.304Z,21.20
2018-12-12T08:33:59.813Z,17.53
2018-12-12T08:36:41.623Z,19.10
2018-12-12T08:39:23.409Z,17.73
2018-12-12T08:42:07.897Z,17.40
2018-12-12T08:44:50.556Z,18.03
2018-12-12T08:47:32.657Z,20.67
2018-12-12T08:50:14.561Z,18.83
2018-12-12T08:52:56.661Z,18.07
2018-12-12T08:55:38.825Z,18.43
2018-12-12T08:58:20.855Z,18.37
2018-12-12T09:01:02.354Z,13.77
2018-12-12T09:03:44.124Z,18.00
2018-12-12T09:06:26.815Z,17.70
2018-12-12T09:09:09.633Z,18.97
2018-12-12T09:11:51.939Z,21.30
2018-12-12T09:14:34.084Z,16.10
2018-12-12T09:17:15.798Z,16.27
2018-12-12T09:19:58.365Z,18.83
2018-12-12T09:22:40.806Z,16.27
2018-12-12T09:25:22.745Z,19.23
2018-12-12T09:28:05.481Z,15.23
2018-12-12T09:30:47.645Z,16.40
2018-12-12T09:33:30.031Z,16.17
2018-12-12T09:36:11.933Z,12.90
2018-12-12T09:38:54.202Z,18.23
2018-12-12T09:41:35.798Z,17.30
2018-12-12T09:44:17.450Z,14.53
2018-12-12T09:46:59.873Z,17.17
2018-12-12T09:49:41.569Z,16.27
2018-12-12T09:52:24.078Z,17.50
2018-12-12T09:55:05.503Z,13.50
2018-12-12T09:57:46.924Z,18.40
2018-12-12T10:00:28.894Z,16.43
2018-12-12T10:03:10.946Z,15.47
2018-12-12T10:05:53.223Z,16.43
2018-12-12T10:08:35.181Z,17.27
2018-12-12T10:11:16.946Z,16.97
2018-12-12T10:13:59.161Z,16.23
2018-12-12T10:16:41.245Z,17.27
2018-12-12T10:19:22.980Z,17.33
2018-12-12T10:22:05.105Z,17.07
2018-12-12T10:24:47.934Z,16.60
2018-12-12T10:27:30.176Z,18.23
2018-12-12T10:30:12.559Z,15.30
2018-12-12T10:32:55.390Z,15.77
2018-12-12T10:35:37.488Z,17.57
2018-12-12T10:38:19.726Z,16.87
2018-12-12T10:41:01.465Z,15.23
2018-12-12T10:43:43.897Z,18.33
2018-12-12T10:46:26.469Z,16.97
2018-12-12T10:49:09.301Z,16.03
2018-12-12T10:51:51.743Z,15.57
2018-12-12T10:54:33.805Z,15.63
2018-12-12T10:57:15.411Z,15.93
2018-12-12T10:59:57.896Z,16.03
2018-12-12T11:02:45.747Z,16.83
2018-12-12T11:05:28.294Z,20.17
2018-12-12T11:08:10.342Z,17.53
2018-12-12T11:10:52.579Z,17.40
2018-12-12T11:13:35.675Z,22.77
2018-12-12T11:16:18.324Z,16.10
2018-12-12T11:19:00.603Z,16.63
2018-12-12T11:21:42.765Z,19.33
2018-12-12T11:24:24.882Z,20.50
2018-12-12T11:27:07.009Z,25.67
2018-12-12T11:29:48.891Z,18.00
2018-12-12T11:32:31.418Z,17.77
2018-12-12T11:35:14.102Z,19.37
2018-12-12T11:37:57.330Z,15.07
2018-12-12T11:40:39.124Z,18.67
2018-12-12T11:43:29.282Z,16.97
2018-12-12T11:46:19.226Z,21.93
2018-12-12T11:49:01.909Z,15.27
2018-12-12T11:51:44.112Z,16.20
2018-12-12T11:54:26.814Z,15.80
2018-12-12T11:57:09.298Z,16.50
2018-12-12T11:59:51.249Z,15.93
2018-12-12T12:02:35.739Z,17.30
2018-12-12T12:05:39.502Z,13.07
2018-12-12T12:11:32.407Z,14.60
2018-12-12T12:14:14.229Z,13.83
2018-12-12T12:16:57.179Z,14.87
2018-12-12T12:19:39.086Z,13.80
2018-12-12T12:22:20.810Z,11.33
2018-12-12T12:25:03.454Z,13.60
2018-12-12T12:27:45.725Z,11.50
2018-12-12T12:30:27.814Z,11.60
2018-12-12T12:33:09.502Z,14.50
2018-12-12T12:35:52.010Z,12.27
2018-12-12T12:38:34.322Z,15.27
2018-12-12T12:41:16.207Z,12.60
2018-12-12T12:43:58.588Z,10.50
2018-12-12T12:46:40.938Z,11.83
2018-12-12T12:49:22.685Z,10.53
2018-12-12T12:52:04.909Z,11.73
2018-12-12T12:54:47.313Z,12.70
2018-12-12T12:57:31.809Z,13.10
2018-12-12T13:00:15.674Z,11.50
2018-12-12T13:02:59.617Z,14.27
2018-12-12T13:05:44.384Z,11.20
2018-12-12T13:08:26.597Z,13.57
2018-12-12T13:11:14.781Z,11.40
2018-12-12T13:13:56.556Z,10.77
2018-12-12T13:16:40.183Z,13.60
2018-12-12T13:19:22.481Z,16.87
2018-12-12T13:22:06.840Z,12.80
2018-12-12T13:24:53.781Z,17.57
2018-12-12T13:27:36.494Z,11.63
2018-12-12T13:30:19.337Z,13.20
2018-12-12T13:33:02.420Z,13.00
2018-12-12T13:35:47.144Z,11.93
2018-12-12T13:38:30.541Z,15.40
2018-12-12T13:41:13.993Z,15.97
2018-12-12T13:43:57.544Z,14.00
2018-12-12T13:46:41.585Z,15.97
2018-12-12T13:49:23.894Z,14.43
2018-12-12T13:52:09.103Z,18.83
2018-12-12T13:54:51.800Z,15.67
2018-12-12T13:57:35.166Z,17.00
2018-12-12T14:00:18.353Z,16.70
2018-12-12T14:03:00.884Z,13.07
2018-12-12T14:05:43.548Z,12.93
2018-12-12T14:08:26.204Z,11.87
2018-12-12T14:11:08.612Z,11.40
2018-12-12T14:13:52.597Z,13.83
2018-12-12T14:16:35.284Z,17.17
2018-12-12T14:19:16.760Z,13.37
2018-12-12T14:21:58.291Z,17.87
2018-12-12T14:24:39.775Z,15.13
2018-12-12T14:27:21.703Z,14.50
2018-12-12T14:30:05.415Z,13.30
2018-12-12T14:32:49.410Z,15.73
2018-12-12T14:35:32.849Z,14.60
2018-12-12T14:38:14.997Z,17.37
2018-12-12T14:40:57.177Z,15.17
2018-12-12T14:43:38.740Z,19.27
2018-12-12T14:46:21.642Z,15.03
2018-12-12T14:49:04.487Z,19.13
2018-12-12T14:51:46.655Z,19.17
2018-12-12T14:54:29.594Z,20.70
2018-12-12T14:57:11.223Z,22.23
2018-12-12T14:59:53.764Z,21.63
2018-12-12T15:02:35.472Z,24.87
2018-12-12T15:05:20.513Z,24.43
2018-12-12T15:08:02.458Z,23.70
2018-12-12T15:10:44.830Z,23.33
2018-12-12T15:13:26.511Z,24.17
2018-12-12T15:16:07.857Z,25.00
2018-12-12T15:18:49.514Z,26.27
2018-12-12T15:21:32.372Z,23.47
2018-12-12T15:24:14.130Z,26.97
2018-12-12T15:26:55.945Z,24.60
2018-12-12T15:29:37.407Z,28.40
2018-12-12T15:32:18.811Z,23.87
2018-12-12T15:35:00.607Z,26.73
2018-12-12T15:37:42.827Z,23.37
2018-12-12T15:40:25.014Z,28.57
2018-12-12T15:43:06.901Z,31.03
2018-12-12T15:45:48.582Z,29.10
2018-12-12T15:48:30.070Z,26.60
2018-12-12T15:51:11.482Z,29.90
2018-12-12T15:53:54.936Z,32.70
2018-12-12T15:56:36.697Z,27.33
2018-12-12T15:59:22.249Z,26.83
2018-12-12T16:02:04.631Z,32.67
2018-12-12T16:04:49.134Z,28.73
2018-12-12T16:07:37.078Z,28.13
2018-12-12T16:10:20.781Z,32.73
2018-12-12T16:13:03.592Z,27.23
2018-12-12T16:15:45.838Z,25.30
2018-12-12T16:18:28.494Z,23.43
2018-12-12T16:21:11.014Z,26.43
2018-12-12T16:23:53.878Z,24.60
2018-12-12T16:26:35.402Z,24.90
2018-12-12T16:29:17.168Z,23.00
2018-12-12T16:31:59.731Z,23.57
2018-12-12T16:34:42.854Z,28.43
2018-12-12T16:37:24.469Z,28.33
2018-12-12T16:40:07.339Z,27.37
2018-12-12T16:42:50.248Z,28.80
2018-12-12T16:45:32.284Z,27.70
2018-12-12T16:48:15.372Z,28.13
2018-12-12T16:50:57.122Z,25.33
2018-12-12T16:53:40.510Z,26.80
2018-12-12T16:56:22.027Z,25.60
2018-12-12T16:59:04.249Z,26.30
2018-12-12T17:01:47.025Z,25.63
2018-12-12T17:04:29.764Z,25.30
2018-12-12T17:07:12.148Z,23.43
2018-12-12T17:09:54.806Z,25.17
2018-12-12T17:12:38.044Z,22.97
2018-12-12T17:15:20.094Z,22.33
2018-12-12T17:18:04.948Z,24.03
2018-12-12T17:20:50.564Z,26.50
2018-12-12T17:23:33.099Z,28.07
2018-12-12T17:26:14.998Z,32.13
2018-12-12T17:28:58.407Z,27.20
2018-12-12T17:31:40.570Z,33.53
2018-12-12T17:34:22.501Z,35.37
2018-12-12T17:37:05.494Z,41.10
2018-12-12T17:39:49.045Z,33.20
2018-12-12T17:42:31.606Z,36.10
2018-12-12T17:45:19.008Z,32.23
2018-12-12T17:48:04.729Z,35.77
2018-12-12T17:50:47.863Z,29.07
2018-12-12T17:53:30.471Z,28.27
2018-12-12T17:56:12.415Z,31.97
2018-12-12T17:58:53.991Z,31.60
2018-12-12T18:01:35.533Z,30.13
2018-12-12T18:04:17.911Z,25.73
2018-12-12T18:06:59.645Z,28.60
2018-12-12T18:09:41.541Z,39.27
2018-12-12T18:12:23.701Z,37.73
2018-12-12T18:15:06.087Z,40.40
2018-12-12T18:17:47.777Z,39.37
2018-12-12T18:20:30.662Z,39.43
2018-12-12T18:23:13.210Z,41.17
2018-12-12T18:25:55.322Z,47.17
2018-12-12T18:28:38.106Z,41.80
2018-12-12T18:31:21.026Z,42.13
2018-12-12T18:34:03.105Z,33.90
2018-12-12T18:36:45.222Z,35.40
2018-12-12T18:39:27.407Z,34.33
2018-12-12T18:42:09.555Z,40.80
2018-12-12T18:44:52.060Z,59.10
2018-12-12T18:47:34.741Z,53.37
2018-12-12T18:50:17.362Z,45.00
2018-12-12T18:52:59.554Z,46.03
2018-12-12T18:55:41.860Z,36.73
2018-12-12T18:58:24.106Z,42.23
2018-12-12T19:01:07.598Z,47.33
2018-12-12T19:03:49.538Z,40.90
2018-12-12T19:06:32.617Z,40.20
2018-12-12T19:09:14.596Z,44.27
2018-12-12T19:11:58.028Z,44.27
2018-12-12T19:14:45.465Z,37.80
2018-12-12T19:17:27.969Z,39.07
2018-12-12T19:20:11.681Z,38.03
2018-12-12T19:22:54.539Z,39.83
2018-12-12T19:25:36.418Z,46.00
2018-12-12T19:28:19.555Z,44.70
2018-12-12T19:31:02.391Z,49.77
2018-12-12T19:33:44.633Z,67.73
2018-12-12T19:36:26.720Z,108.53
2018-12-12T19:39:10.295Z,61.87
2018-12-12T19:41:52.549Z,50.77
2018-12-12T19:44:34.958Z,46.67
2018-12-12T19:47:19.877Z,48.30
2018-12-12T19:50:03.942Z,46.37
2018-12-12T19:52:47.040Z,43.83
2018-12-12T19:55:31.552Z,41.33
2018-12-12T19:58:16.841Z,39.63
2018-12-12T20:00:59.441Z,43.20
2018-12-12T20:03:41.851Z,57.17
2018-12-12T20:06:24.570Z,64.37
2018-12-12T20:09:07.749Z,59.03
2018-12-12T20:11:49.490Z,53.07
2018-12-12T20:14:31.911Z,39.57
2018-12-12T20:17:14.466Z,47.53
2018-12-12T20:19:55.950Z,42.63
2018-12-12T20:22:38.030Z,46.27
2018-12-12T20:25:20.292Z,48.70
2018-12-12T20:28:01.930Z,51.80
2018-12-12T20:30:44.807Z,50.73
2018-12-12T20:33:27.270Z,72.70
2018-12-12T20:36:09.511Z,56.03
2018-12-12T20:38:51.908Z,45.00
2018-12-12T20:41:34.170Z,48.57
2018-12-12T20:44:16.778Z,48.50
2018-12-12T20:46:59.218Z,50.83
2018-12-12T20:49:41.062Z,56.03
2018-12-12T20:52:24.421Z,47.13
2018-12-12T20:55:06.147Z,42.43
2018-12-12T20:57:48.539Z,40.67
2018-12-12T21:00:29.994Z,55.70
2018-12-12T21:03:11.820Z,47.43
2018-12-12T21:05:54.735Z,40.80
2018-12-12T21:08:36.940Z,67.37
2018-12-12T21:11:18.571Z,52.37
2018-12-12T21:14:01.580Z,41.97
2018-12-12T21:16:43.420Z,45.90
2018-12-12T21:19:25.242Z,38.87
2018-12-12T21:22:37.422Z,38.13
2018-12-12T21:28:57.303Z,37.50
2018-12-12T21:31:40.547Z,36.57
2018-12-12T21:34:22.439Z,35.07
2018-12-12T21:37:05.373Z,33.80
2018-12-12T21:39:47.576Z,34.07
2018-12-12T21:42:30.478Z,39.27
2018-12-12T21:45:13.738Z,33.50
2018-12-12T21:47:56.579Z,35.77
2018-12-12T21:50:39.253Z,35.70
2018-12-12T21:53:21.358Z,33.40
2018-12-12T21:56:03.790Z,33.80
2018-12-12T21:58:45.964Z,32.90
2018-12-12T22:01:28.357Z,28.20
2018-12-12T22:04:10.367Z,30.90
2018-12-12T22:06:52.966Z,27.60
2018-12-12T22:09:35.375Z,29.60
2018-12-12T22:12:18.136Z,30.47
2018-12-12T22:15:00.983Z,28.10
2018-12-12T22:17:42.751Z,25.10
2018-12-12T22:20:25.483Z,25.77
2018-12-12T22:23:08.225Z,26.80
2018-12-12T22:25:50.794Z,25.50
2018-12-12T22:28:33.119Z,28.87
2018-12-12T22:31:15.923Z,26.10
2018-12-12T22:33:58.952Z,40.43
2018-12-12T22:36:41.923Z,26.90
2018-12-12T22:39:24.131Z,28.77
2018-12-12T22:42:07.435Z,25.73
2018-12-12T22:44:49.852Z,29.07
2018-12-12T22:47:33.136Z,27.03
2018-12-12T22:50:15.607Z,28.83
2018-12-12T22:52:57.839Z,25.13
2018-12-12T22:55:42.680Z,25.07
2018-12-12T22:58:24.991Z,27.90
2018-12-12T23:01:12.495Z,30.63
2018-12-12T23:03:55.223Z,26.13
2018-12-12T23:06:37.435Z,25.77
2018-12-12T23:09:20.976Z,25.33
2018-12-12T23:12:04.809Z,24.67
2018-12-12T23:14:47.228Z,25.23
2018-12-12T23:17:29.909Z,25.83
2018-12-12T23:20:12.276Z,24.90
2018-12-12T23:22:54.887Z,25.50
2018-12-12T23:25:37.812Z,27.07
2018-12-12T23:28:20.472Z,25.50
2018-12-12T23:31:03.398Z,26.23
2018-12-12T23:33:46.179Z,23.13
2018-12-12T23:36:28.279Z,21.90
2018-12-12T23:39:11.051Z,25.70
2018-12-12T23:41:53.360Z,26.07
2018-12-12T23:44:35.304Z,25.03
2018-12-12T23:47:17.627Z,23.93
2018-12-12T23:49:59.692Z,23.30
2018-12-12T23:52:42.001Z,26.90
2018-12-12T23:55:25.091Z,25.97
2018-12-12T23:58:07.023Z,24.17
